createdAt,value
2022-12-28T00:01:23.910Z,3.70
2022-12-28T00:03:52.599Z,3.55
2022-12-28T00:06:21.679Z,3.65
2022-12-28T00:08:50.038Z,3.85
2022-12-28T00:11:27.809Z,4.18
2022-12-28T00:14:01.249Z,3.92
2022-12-28T00:16:30.512Z,3.88
2022-12-28T00:18:59.735Z,3.63
2022-12-28T00:21:28.408Z,3.67
2022-12-28T00:23:58.153Z,4.40
2022-12-28T00:26:27.274Z,4.35
2022-12-28T00:29:03.646Z,4.28
2022-12-28T00:31:34.743Z,3.47
2022-12-28T00:34:03.262Z,4.20
2022-12-28T00:37:09.947Z,3.70
2022-12-28T00:39:20.243Z,3.78
2022-12-28T00:41:49.037Z,3.65
2022-12-28T00:44:17.413Z,3.28
2022-12-28T00:46:47.102Z,4.28
2022-12-28T00:49:15.408Z,3.58
2022-12-28T00:51:43.705Z,4.00
2022-12-28T00:54:12.125Z,3.78
2022-12-28T00:56:42.756Z,4.00
2022-12-28T00:59:11.219Z,3.47
2022-12-28T01:01:39.798Z,3.83
2022-12-28T01:04:09.529Z,3.95
2022-12-28T01:06:37.897Z,4.45
2022-12-28T01:09:06.139Z,3.88
2022-12-28T01:11:34.750Z,3.75
2022-12-28T01:14:03.707Z,4.28
2022-12-28T01:16:33.373Z,4.28
2022-12-28T01:19:02.473Z,4.07
2022-12-28T01:21:33.078Z,4.35
2022-12-28T01:24:02.215Z,4.47
2022-12-28T01:26:33.045Z,3.97
2022-12-28T01:29:01.752Z,4.43
2022-12-28T01:31:33.590Z,4.75
2022-12-28T01:34:02.188Z,5.05
2022-12-28T01:36:32.966Z,4.55
2022-12-28T01:39:02.693Z,4.97
2022-12-28T01:41:33.727Z,4.53
2022-12-28T01:44:20.894Z,5.00
2022-12-28T01:46:50.965Z,5.07
2022-12-28T01:49:20.958Z,4.93
2022-12-28T01:51:54.689Z,5.22
2022-12-28T01:54:26.343Z,4.63
2022-12-28T01:56:54.821Z,5.40
2022-12-28T01:59:27.328Z,5.47
2022-12-28T02:01:56.079Z,5.05
2022-12-28T02:04:25.968Z,5.35
2022-12-28T02:06:56.142Z,5.07
2022-12-28T02:09:27.979Z,4.53
2022-12-28T02:11:56.946Z,5.03
2022-12-28T02:14:25.392Z,5.45
2022-12-28T02:16:53.863Z,5.60
2022-12-28T02:19:27.425Z,5.18
2022-12-28T02:22:09.301Z,5.45
2022-12-28T02:25:12.389Z,5.00
2022-12-28T02:27:46.740Z,4.68
2022-12-28T02:30:16.497Z,4.78
2022-12-28T02:32:52.392Z,5.30
2022-12-28T02:35:26.363Z,5.20
2022-12-28T02:37:57.347Z,4.53
2022-12-28T02:40:28.092Z,5.00
2022-12-28T02:42:59.201Z,4.65
2022-12-28T02:45:50.438Z,5.20
2022-12-28T02:48:36.209Z,5.28
2022-12-28T02:51:10.173Z,5.07
2022-12-28T02:53:47.282Z,4.70
2022-12-28T02:56:23.113Z,4.95
2022-12-28T02:58:59.331Z,5.20
2022-12-28T03:01:41.455Z,5.00
2022-12-28T03:04:15.609Z,4.90
2022-12-28T03:07:04.393Z,4.80
2022-12-28T03:09:35.583Z,5.03
2022-12-28T03:12:06.738Z,5.50
2022-12-28T03:14:37.740Z,4.68
2022-12-28T03:17:28.310Z,4.70
2022-12-28T03:20:16.481Z,5.13
2022-12-28T03:23:03.261Z,4.95
2022-12-28T03:25:51.649Z,4.97
2022-12-28T03:28:45.899Z,4.63
2022-12-28T03:31:16.687Z,5.30
2022-12-28T03:33:53.693Z,5.00
2022-12-28T03:36:24.920Z,4.57
2022-12-28T03:38:56.938Z,5.10
2022-12-28T03:41:30.263Z,4.28
2022-12-28T03:44:07.076Z,5.05
2022-12-28T03:46:37.703Z,4.60
2022-12-28T03:49:07.415Z,4.97
2022-12-28T03:51:36.470Z,4.90
2022-12-28T03:54:15.539Z,4.88
2022-12-28T03:56:47.394Z,4.80
2022-12-28T03:59:16.370Z,4.20
2022-12-28T04:01:48.909Z,5.00
2022-12-28T04:04:21.087Z,4.30
2022-12-28T04:06:51.418Z,4.47
2022-12-28T04:09:19.811Z,5.30
2022-12-28T04:11:49.268Z,5.10
2022-12-28T04:14:25.281Z,5.20
2022-12-28T04:16:53.658Z,4.50
2022-12-28T04:19:23.847Z,4.75
2022-12-28T04:21:52.873Z,4.93
2022-12-28T04:24:21.898Z,5.43
2022-12-28T04:26:50.210Z,4.75
2022-12-28T04:29:18.582Z,5.03
2022-12-28T04:32:02.565Z,4.57
2022-12-28T04:34:32.348Z,4.97
2022-12-28T04:37:07.863Z,4.55
2022-12-28T04:39:54.050Z,4.53
2022-12-28T04:42:24.522Z,4.53
2022-12-28T04:44:52.826Z,4.50
2022-12-28T04:47:21.169Z,4.03
2022-12-28T04:49:50.990Z,5.03
2022-12-28T04:52:19.530Z,4.43
2022-12-28T04:54:47.802Z,4.53
2022-12-28T04:57:16.102Z,4.25
2022-12-28T04:59:44.445Z,4.07
2022-12-28T05:02:12.814Z,4.10
2022-12-28T05:04:41.240Z,4.10
2022-12-28T05:07:10.851Z,3.60
2022-12-28T05:09:39.213Z,3.78
2022-12-28T05:12:07.660Z,3.88
2022-12-28T05:18:44.320Z,4.00
2022-12-28T05:21:14.470Z,3.45
2022-12-28T05:23:44.284Z,3.58
2022-12-28T05:26:13.652Z,3.95
2022-12-28T05:28:42.338Z,3.28
2022-12-28T05:31:12.572Z,3.25
2022-12-28T05:33:41.042Z,3.55
2022-12-28T05:36:10.490Z,3.13
2022-12-28T05:38:38.998Z,3.30
2022-12-28T05:41:09.411Z,3.20
2022-12-28T05:43:37.711Z,3.05
2022-12-28T05:46:07.330Z,2.70
2022-12-28T05:48:36.428Z,3.30
2022-12-28T05:51:06.074Z,3.30
2022-12-28T05:53:34.757Z,2.92
2022-12-28T05:56:03.744Z,2.80
2022-12-28T05:58:33.625Z,3.20
2022-12-28T06:01:06.106Z,3.25
2022-12-28T06:03:34.573Z,2.60
2022-12-28T06:06:07.307Z,2.70
2022-12-28T06:08:35.835Z,3.17
2022-12-28T06:11:04.452Z,3.33
2022-12-28T06:13:34.463Z,3.00
2022-12-28T06:16:06.988Z,3.22
2022-12-28T06:18:35.828Z,3.38
2022-12-28T06:21:04.926Z,2.88
2022-12-28T06:23:33.428Z,2.92
2022-12-28T06:26:02.202Z,2.83
2022-12-28T06:28:30.650Z,3.05
2022-12-28T06:31:07.306Z,2.85
2022-12-28T06:33:35.857Z,2.70
2022-12-28T06:36:04.312Z,3.28
2022-12-28T06:38:34.343Z,2.90
2022-12-28T06:41:14.859Z,2.92
2022-12-28T06:43:44.201Z,3.20
2022-12-28T06:46:14.125Z,2.42
2022-12-28T06:48:42.682Z,2.65
2022-12-28T06:51:12.992Z,2.85
2022-12-28T06:53:41.509Z,2.55
2022-12-28T06:56:11.761Z,3.15
2022-12-28T06:58:40.101Z,2.92
2022-12-28T07:01:09.156Z,2.50
2022-12-28T07:03:38.849Z,3.05
2022-12-28T07:06:07.746Z,2.75
2022-12-28T07:08:36.090Z,3.08
2022-12-28T07:11:04.731Z,3.22
2022-12-28T07:13:33.060Z,2.60
2022-12-28T07:16:03.570Z,2.75
2022-12-28T07:18:32.447Z,2.75
2022-12-28T07:21:03.169Z,3.13
2022-12-28T07:23:31.518Z,3.05
2022-12-28T07:26:00.289Z,2.95
2022-12-28T07:28:28.620Z,2.90
2022-12-28T07:30:57.116Z,2.85
2022-12-28T07:33:25.479Z,2.60
2022-12-28T07:35:53.815Z,2.65
2022-12-28T07:38:23.454Z,3.13
2022-12-28T07:40:51.754Z,2.67
2022-12-28T07:43:20.019Z,2.70
2022-12-28T07:45:48.593Z,3.05
2022-12-28T07:48:17.301Z,2.63
2022-12-28T07:50:45.696Z,2.80
2022-12-28T07:53:20.239Z,2.80
2022-12-28T07:55:57.691Z,2.90
2022-12-28T07:58:26.107Z,2.67
2022-12-28T08:00:54.929Z,2.90
2022-12-28T08:03:24.445Z,2.58
2022-12-28T08:05:52.976Z,2.50
2022-12-28T08:08:21.318Z,2.80
2022-12-28T08:10:49.771Z,2.50
2022-12-28T08:13:19.397Z,2.75
2022-12-28T08:15:55.006Z,2.47
2022-12-28T08:18:23.344Z,2.22
2022-12-28T08:20:51.670Z,2.35
2022-12-28T08:23:20.040Z,2.45
2022-12-28T08:25:48.543Z,2.22
2022-12-28T08:28:17.184Z,2.30
2022-12-28T08:30:46.980Z,2.70
2022-12-28T08:33:15.351Z,2.20
2022-12-28T08:35:43.641Z,2.03
2022-12-28T08:38:11.964Z,2.03
2022-12-28T08:40:40.214Z,2.10
2022-12-28T08:43:08.511Z,1.98
2022-12-28T08:45:36.769Z,2.00
2022-12-28T08:48:07.173Z,1.85
2022-12-28T08:50:35.566Z,2.05
2022-12-28T08:53:03.862Z,2.20
2022-12-28T08:55:32.151Z,2.10
2022-12-28T08:58:00.430Z,1.83
2022-12-28T09:00:28.723Z,2.40
2022-12-28T09:03:00.390Z,2.08
2022-12-28T09:05:34.501Z,2.28
2022-12-28T09:08:06.230Z,1.98
2022-12-28T09:10:34.496Z,2.17
2022-12-28T09:13:02.901Z,2.22
2022-12-28T09:15:31.289Z,2.63
2022-12-28T09:18:02.708Z,2.50
2022-12-28T09:20:32.328Z,1.90
2022-12-28T09:23:00.683Z,2.08
2022-12-28T09:25:29.061Z,2.75
2022-12-28T09:27:59.604Z,3.60
2022-12-28T09:30:28.182Z,2.10
2022-12-28T09:33:17.900Z,2.17
2022-12-28T09:35:51.604Z,2.25
2022-12-28T09:38:20.076Z,2.10
2022-12-28T09:40:48.397Z,2.17
2022-12-28T09:43:16.791Z,2.28
2022-12-28T09:45:45.733Z,1.92
2022-12-28T09:48:16.384Z,2.25
2022-12-28T09:50:45.224Z,1.67
2022-12-28T09:53:20.942Z,1.88
2022-12-28T09:55:59.047Z,2.42
2022-12-28T09:58:28.789Z,2.25
2022-12-28T10:00:58.257Z,2.00
2022-12-28T10:03:28.259Z,2.20
2022-12-28T10:05:58.758Z,2.47
2022-12-28T10:08:29.354Z,1.70
2022-12-28T10:11:00.667Z,2.17
2022-12-28T10:13:53.596Z,1.80
2022-12-28T10:16:19.619Z,2.13
2022-12-28T10:18:48.391Z,2.10
2022-12-28T10:21:18.430Z,1.83
2022-12-28T10:26:38.154Z,1.95
2022-12-28T10:29:06.443Z,1.90
2022-12-28T10:31:36.118Z,1.80
2022-12-28T10:34:12.915Z,1.90
2022-12-28T10:36:42.088Z,1.88
2022-12-28T10:39:16.084Z,1.75
2022-12-28T10:41:47.198Z,1.60
2022-12-28T10:44:38.937Z,1.85
2022-12-28T10:47:16.482Z,1.92
2022-12-28T10:50:02.695Z,1.73
2022-12-28T10:52:38.580Z,1.92
2022-12-28T10:55:27.621Z,1.75
2022-12-28T11:00:52.426Z,1.80
2022-12-28T11:03:21.361Z,1.90
2022-12-28T11:05:57.449Z,1.83
2022-12-28T11:08:26.738Z,1.85
2022-12-28T11:10:59.354Z,1.88
2022-12-28T11:13:28.117Z,1.30
2022-12-28T11:15:56.467Z,1.92
2022-12-28T11:18:24.992Z,1.70
2022-12-28T11:20:54.118Z,1.63
2022-12-28T11:23:23.207Z,1.90
2022-12-28T11:25:51.743Z,2.00
2022-12-28T11:28:22.576Z,1.88
2022-12-28T11:30:51.674Z,1.80
2022-12-28T11:33:25.695Z,1.73
2022-12-28T11:35:59.608Z,1.80
2022-12-28T11:38:41.084Z,1.50
2022-12-28T11:41:11.386Z,1.92
2022-12-28T11:43:54.896Z,1.88
2022-12-28T11:46:42.321Z,1.77
2022-12-28T11:49:25.323Z,1.70
2022-12-28T11:52:08.620Z,1.52
2022-12-28T11:54:38.224Z,1.60
2022-12-28T11:57:06.576Z,1.55
2022-12-28T11:59:37.234Z,1.60
2022-12-28T12:02:25.818Z,2.00
2022-12-28T12:04:56.718Z,2.20
2022-12-28T12:07:31.645Z,1.65
2022-12-28T12:10:14.956Z,1.90
2022-12-28T12:12:51.012Z,2.00
2022-12-28T12:15:21.870Z,1.67
2022-12-28T12:17:51.952Z,1.40
2022-12-28T12:20:23.303Z,2.05
2022-12-28T12:22:53.324Z,1.90
2022-12-28T12:25:23.615Z,2.10
2022-12-28T12:27:55.147Z,1.60
2022-12-28T12:30:25.105Z,1.77
2022-12-28T12:32:55.191Z,2.00
2022-12-28T12:35:25.156Z,2.13
2022-12-28T12:37:56.240Z,2.03
2022-12-28T12:40:39.526Z,1.88
2022-12-28T12:43:19.335Z,1.77
2022-12-28T12:45:52.149Z,1.40
2022-12-28T12:48:36.310Z,1.50
2022-12-28T12:51:10.137Z,1.60
2022-12-28T12:53:48.907Z,1.58
2022-12-28T12:56:26.171Z,1.60
2022-12-28T12:58:59.603Z,1.58
2022-12-28T13:01:34.870Z,1.45
2022-12-28T13:04:08.572Z,1.95
2022-12-28T13:06:40.421Z,1.45
2022-12-28T13:09:13.444Z,1.60
2022-12-28T13:11:41.872Z,1.52
2022-12-28T13:14:14.787Z,1.80
2022-12-28T13:16:48.020Z,1.50
2022-12-28T13:19:19.811Z,2.00
2022-12-28T13:21:49.981Z,1.95
2022-12-28T13:24:23.011Z,1.50
2022-12-28T13:26:51.728Z,1.90
2022-12-28T13:29:21.137Z,1.65
2022-12-28T13:31:51.331Z,1.60
2022-12-28T13:34:20.852Z,1.80
2022-12-28T13:36:49.812Z,1.90
2022-12-28T13:39:20.396Z,1.50
2022-12-28T13:41:50.205Z,1.70
2022-12-28T13:44:23.245Z,1.88
2022-12-28T13:46:56.380Z,1.98
2022-12-28T13:49:25.265Z,1.80
2022-12-28T13:51:53.908Z,2.47
2022-12-28T13:54:24.954Z,2.20
2022-12-28T13:57:03.374Z,1.88
2022-12-28T13:59:42.297Z,1.77
2022-12-28T14:02:20.022Z,1.75
2022-12-28T14:04:55.034Z,1.52
2022-12-28T14:07:25.886Z,1.60
2022-12-28T14:09:54.508Z,2.03
2022-12-28T14:12:23.287Z,1.80
2022-12-28T14:14:52.055Z,1.85
2022-12-28T14:17:22.002Z,2.55
2022-12-28T14:19:50.554Z,1.83
2022-12-28T14:22:32.168Z,2.28
2022-12-28T14:25:05.086Z,1.80
2022-12-28T14:27:36.512Z,2.20
2022-12-28T14:30:06.794Z,2.15
2022-12-28T14:32:42.578Z,2.08
2022-12-28T14:35:17.823Z,2.20
2022-12-28T14:37:47.825Z,2.58
2022-12-28T14:40:20.066Z,2.22
2022-12-28T14:42:50.579Z,2.28
2022-12-28T14:46:07.554Z,2.35
2022-12-28T14:48:32.549Z,1.80
2022-12-28T14:51:02.185Z,1.48
2022-12-28T14:53:31.290Z,1.60
2022-12-28T14:56:04.815Z,1.70
2022-12-28T14:58:34.762Z,1.35
2022-12-28T15:01:06.759Z,1.88
2022-12-28T15:03:50.513Z,1.90
2022-12-28T15:06:20.806Z,1.92
2022-12-28T15:08:49.973Z,1.75
2022-12-28T15:11:19.101Z,2.17
2022-12-28T15:13:47.623Z,2.00
2022-12-28T15:16:17.935Z,1.75
2022-12-28T15:18:46.967Z,2.00
2022-12-28T15:21:17.317Z,2.05
2022-12-28T15:23:49.748Z,1.65
2022-12-28T15:26:18.279Z,2.10
2022-12-28T15:28:46.850Z,2.00
2022-12-28T15:31:17.668Z,2.08
2022-12-28T15:33:46.418Z,1.45
2022-12-28T15:36:17.878Z,1.50
2022-12-28T15:38:48.594Z,1.70
2022-12-28T15:41:35.583Z,1.60
2022-12-28T15:44:04.017Z,2.17
2022-12-28T15:46:32.403Z,1.52
2022-12-28T15:49:00.808Z,1.60
2022-12-28T15:51:29.079Z,1.35
2022-12-28T15:53:58.808Z,1.75
2022-12-28T15:56:28.116Z,1.40
2022-12-28T15:59:14.203Z,1.60
2022-12-28T16:01:50.482Z,1.48
2022-12-28T16:04:22.921Z,1.35
2022-12-28T16:06:51.381Z,1.50
2022-12-28T16:09:19.747Z,1.50
2022-12-28T16:11:54.708Z,1.60
2022-12-28T16:14:24.839Z,1.60
2022-12-28T16:16:53.244Z,1.55
2022-12-28T16:19:21.854Z,1.52
2022-12-28T16:21:50.902Z,1.30
2022-12-28T16:24:20.085Z,1.52
2022-12-28T16:26:48.653Z,1.38
2022-12-28T16:29:17.006Z,1.27
2022-12-28T16:31:46.730Z,1.30
2022-12-28T16:34:17.000Z,1.80
2022-12-28T16:36:46.958Z,1.25
2022-12-28T16:39:16.493Z,1.55
2022-12-28T16:41:45.176Z,1.30
2022-12-28T16:44:15.142Z,1.30
2022-12-28T16:46:43.572Z,1.42
2022-12-28T16:49:13.372Z,1.30
2022-12-28T16:51:42.157Z,1.40
2022-12-28T16:54:13.247Z,1.52
2022-12-28T16:56:41.601Z,1.20
2022-12-28T16:59:12.551Z,1.30
2022-12-28T17:01:46.145Z,1.30
2022-12-28T17:04:20.387Z,1.30
2022-12-28T17:06:50.802Z,1.40
2022-12-28T17:09:19.498Z,1.42
2022-12-28T17:11:48.205Z,1.60
2022-12-28T17:14:29.275Z,1.63
2022-12-28T17:17:04.043Z,1.70
2022-12-28T17:19:33.778Z,1.40
2022-12-28T17:22:02.124Z,1.70
2022-12-28T17:24:30.557Z,1.48
2022-12-28T17:27:05.192Z,1.40
2022-12-28T17:29:35.915Z,1.60
2022-12-28T17:32:04.347Z,1.83
2022-12-28T17:34:34.632Z,1.52
2022-12-28T17:37:02.939Z,1.70
2022-12-28T17:39:37.527Z,1.67
2022-12-28T17:42:08.491Z,1.70
2022-12-28T17:44:36.826Z,1.50
2022-12-28T17:47:05.462Z,1.45
2022-12-28T17:49:35.124Z,1.88
2022-12-28T17:52:03.452Z,1.40
2022-12-28T17:54:31.860Z,1.90
2022-12-28T17:57:00.585Z,1.48
2022-12-28T17:59:29.296Z,1.58
2022-12-28T18:01:58.158Z,1.52
2022-12-28T18:04:26.667Z,1.48
2022-12-28T18:06:56.306Z,1.60
2022-12-28T18:09:27.879Z,1.80
2022-12-28T18:11:56.736Z,1.60
2022-12-28T18:14:25.227Z,1.60
2022-12-28T18:16:53.652Z,1.70
2022-12-28T18:19:22.003Z,1.85
2022-12-28T18:21:50.344Z,1.73
2022-12-28T18:24:20.933Z,1.70
2022-12-28T18:26:49.562Z,1.45
2022-12-28T18:29:17.905Z,1.67
2022-12-28T18:31:46.382Z,1.58
2022-12-28T18:34:15.330Z,1.75
2022-12-28T18:36:43.726Z,1.92
2022-12-28T18:39:12.051Z,1.75
2022-12-28T18:41:41.976Z,1.50
2022-12-28T18:44:10.535Z,1.90
2022-12-28T18:46:38.885Z,2.00
2022-12-28T18:49:07.335Z,1.60
2022-12-28T18:51:36.449Z,1.50
2022-12-28T18:54:05.506Z,1.80
2022-12-28T18:56:36.231Z,1.40
2022-12-28T18:59:06.334Z,1.45
2022-12-28T19:04:25.263Z,1.85
2022-12-28T19:06:53.673Z,1.80
2022-12-28T19:09:22.024Z,2.10
2022-12-28T19:11:50.445Z,1.60
2022-12-28T19:14:20.271Z,1.60
2022-12-28T19:16:48.700Z,1.42
2022-12-28T19:19:17.872Z,2.10
2022-12-28T19:21:46.290Z,1.70
2022-12-28T19:24:15.680Z,1.65
2022-12-28T19:26:44.544Z,1.70
2022-12-28T19:29:13.117Z,1.90
2022-12-28T19:31:42.912Z,2.50
2022-12-28T19:34:11.326Z,2.50
2022-12-28T19:36:39.646Z,2.00
2022-12-28T19:39:08.193Z,2.25
2022-12-28T19:41:36.535Z,2.40
2022-12-28T19:44:04.984Z,2.05
2022-12-28T19:46:33.356Z,2.20
2022-12-28T19:49:03.891Z,2.38
2022-12-28T19:51:33.073Z,2.10
2022-12-28T19:54:01.657Z,2.03
2022-12-28T19:56:30.002Z,2.30
2022-12-28T19:59:05.547Z,1.85
2022-12-28T20:01:35.766Z,2.20
2022-12-28T20:04:12.449Z,2.40
2022-12-28T20:06:42.086Z,2.10
2022-12-28T20:09:10.363Z,1.98
2022-12-28T20:11:38.706Z,2.17
2022-12-28T20:14:07.137Z,1.80
2022-12-28T20:16:36.506Z,2.30
2022-12-28T20:19:08.435Z,1.92
2022-12-28T20:21:37.422Z,2.10
2022-12-28T20:24:06.867Z,2.30
2022-12-28T20:26:35.529Z,1.92
2022-12-28T20:29:04.130Z,2.05
2022-12-28T20:31:32.563Z,1.85
2022-12-28T20:34:01.662Z,1.90
2022-12-28T20:36:33.707Z,2.10
2022-12-28T20:39:02.143Z,1.95
2022-12-28T20:41:49.031Z,2.00
2022-12-28T20:44:18.464Z,2.05
2022-12-28T20:46:47.059Z,2.20
2022-12-28T20:49:15.455Z,1.83
2022-12-28T20:51:46.880Z,2.13
2022-12-28T20:54:15.309Z,1.92
2022-12-28T20:56:46.815Z,1.77
2022-12-28T20:59:18.994Z,1.92
2022-12-28T21:01:47.496Z,1.70
2022-12-28T21:04:15.970Z,1.60
2022-12-28T21:06:46.059Z,1.88
2022-12-28T21:09:14.419Z,1.95
2022-12-28T21:11:42.741Z,2.00
2022-12-28T21:14:11.091Z,1.77
2022-12-28T21:16:39.434Z,1.70
2022-12-28T21:19:07.826Z,2.30
2022-12-28T21:21:36.143Z,1.65
2022-12-28T21:24:05.990Z,1.75
2022-12-28T21:26:34.395Z,1.70
2022-12-28T21:29:03.055Z,2.35
2022-12-28T21:31:31.430Z,2.10
2022-12-28T21:33:59.954Z,2.08
2022-12-28T21:36:28.236Z,1.70
2022-12-28T21:38:56.559Z,2.00
2022-12-28T21:41:43.815Z,2.00
2022-12-28T21:44:14.372Z,1.70
2022-12-28T21:46:43.301Z,2.10
2022-12-28T21:49:11.887Z,1.98
2022-12-28T21:51:40.955Z,1.73
2022-12-28T21:54:11.840Z,1.95
2022-12-28T21:56:41.818Z,1.70
2022-12-28T21:59:10.398Z,1.95
2022-12-28T22:01:56.839Z,1.60
2022-12-28T22:04:43.326Z,2.00
2022-12-28T22:07:12.663Z,1.80
2022-12-28T22:09:58.854Z,2.10
2022-12-28T22:12:37.954Z,2.08
2022-12-28T22:15:29.893Z,1.90
2022-12-28T22:17:59.108Z,2.10
2022-12-28T22:20:39.074Z,1.90
2022-12-28T22:23:08.021Z,1.90
2022-12-28T22:25:37.165Z,2.10
2022-12-28T22:28:07.171Z,2.00
2022-12-28T22:30:36.319Z,1.75
2022-12-28T22:33:04.957Z,2.17
2022-12-28T22:35:33.560Z,1.90
2022-12-28T22:38:01.847Z,1.70
2022-12-28T22:40:30.269Z,2.05
2022-12-28T22:42:58.564Z,1.90
2022-12-28T22:45:28.659Z,1.55
2022-12-28T22:47:59.417Z,1.63
2022-12-28T22:50:29.097Z,1.90
2022-12-28T22:52:58.104Z,1.75
2022-12-28T22:55:26.421Z,2.05
2022-12-28T22:57:54.767Z,1.70
2022-12-28T23:00:23.130Z,1.80
2022-12-28T23:02:56.156Z,1.92
2022-12-28T23:05:24.532Z,1.80
2022-12-28T23:07:53.089Z,1.88
2022-12-28T23:10:22.243Z,1.85
2022-12-28T23:12:53.081Z,1.77
2022-12-28T23:15:25.794Z,2.00
2022-12-28T23:18:15.799Z,2.17
2022-12-28T23:21:05.958Z,2.15
2022-12-28T23:23:51.873Z,1.90
2022-12-28T23:26:37.778Z,1.85
2022-12-28T23:29:06.115Z,1.95
2022-12-28T23:31:34.463Z,1.67
2022-12-28T23:34:04.088Z,2.00
2022-12-28T23:36:33.510Z,2.20
2022-12-28T23:39:01.876Z,1.98
2022-12-28T23:41:47.674Z,2.35
2022-12-28T23:44:16.095Z,1.80
2022-12-28T23:46:44.633Z,1.98
2022-12-28T23:49:15.194Z,1.80
2022-12-28T23:51:44.582Z,1.77
2022-12-28T23:54:13.347Z,1.95
2022-12-28T23:56:42.664Z,1.80
2022-12-28T23:59:13.624Z,1.90
